Time;durP1;ratioP1;P1;durP2;ratioP2;P2;SDS_P1;SDS_P2;PMS_P1;PMS_P2;Temp;Humidity;BMP_temperature;BMP_pressure;BME280_temperature;BME280_humidity;BME280_pressure;Samples;Min_cycle;Max_cycle;Signal;HPM_P1;HPM_P2
2023/03/05 00:00:10;;;;;;;403.67;177.30;;;;;;;5.73;100.00;99198.91;342108;28;1053;-77
2023/03/05 00:00:21;;;;;;;405.35;172.30;;;;;;;5.72;100.00;99197.19;340798;29;1036;-77
2023/03/05 00:00:31;;;;;;;406.17;167.70;;;;;;;5.72;100.00;99198.03;342262;28;786;-77
2023/03/05 00:00:41;;;;;;;402.10;167.50;;;;;;;5.74;100.00;99198.84;340785;29;1087;-77
2023/03/05 00:00:52;;;;;;;401.03;167.33;;;;;;;5.69;100.00;99187.75;340845;29;1215;-76
2023/03/05 00:01:06;;;;;;;399.77;170.35;;;;;;;5.76;100.00;99199.66;342125;28;1045;-77
2023/03/05 00:01:23;;;;;;;396.27;169.77;;;;;;;5.72;100.00;99192.00;340849;28;1471;-76
2023/03/05 00:01:33;;;;;;;400.95;165.65;;;;;;;5.72;100.00;99195.44;336883;29;1039;-76
2023/03/05 00:01:44;;;;;;;405.55;165.02;;;;;;;5.75;100.00;99197.97;339554;29;1283;-76
2023/03/05 00:01:54;;;;;;;407.73;166.63;;;;;;;5.77;100.00;99205.72;340994;28;976;-77
2023/03/05 00:02:05;;;;;;;400.20;166.57;;;;;;;5.71;100.00;99191.16;342074;28;1324;-76
2023/03/05 00:02:15;;;;;;;396.60;165.87;;;;;;;5.64;100.00;99185.28;342286;28;853;-77
2023/03/05 00:02:25;;;;;;;395.08;166.50;;;;;;;5.73;100.00;99197.16;341153;28;1337;-76
2023/03/05 00:02:36;;;;;;;398.33;168.30;;;;;;;5.75;100.00;99197.09;340571;28;1370;-76
2023/03/05 00:02:46;;;;;;;399.45;168.13;;;;;;;5.75;100.00;99202.31;345045;28;884;-76
2023/03/05 00:02:57;;;;;;;399.90;163.73;;;;;;;5.64;100.00;99172.28;342063;28;1212;-76
2023/03/05 00:03:07;;;;;;;398.83;157.40;;;;;;;5.76;100.00;99204.00;345267;28;983;-77
2023/03/05 00:03:17;;;;;;;395.70;156.80;;;;;;;5.71;100.00;99191.16;344754;28;1293;-76
2023/03/05 00:03:28;;;;;;;396.43;160.53;;;;;;;5.71;100.00;99190.31;346939;28;1141;-76
2023/03/05 00:03:38;;;;;;;396.13;164.23;;;;;;;5.77;100.00;99200.50;346701;28;1375;-76
2023/03/05 00:03:51;;;;;;;397.67;166.50;;;;;;;5.75;100.00;99200.56;345983;28;1452;-77
2023/03/05 00:04:01;;;;;;;397.48;166.38;;;;;;;5.66;100.00;99182.63;343459;28;857;-77
2023/03/05 00:04:13;;;;;;;399.65;176.00;;;;;;;5.78;100.00;99202.22;348218;28;1301;-77
2023/03/05 00:04:23;;;;;;;403.13;177.68;;;;;;;5.72;100.00;99194.59;345927;28;1723;-77
2023/03/05 00:04:34;;;;;;;402.55;175.93;;;;;;;5.75;100.00;99197.09;343234;28;1922;-77
2023/03/05 00:04:44;;;;;;;401.30;174.00;;;;;;;5.79;100.00;99203.91;344924;28;901;-76
2023/03/05 00:04:54;;;;;;;400.30;173.23;;;;;;;5.78;100.00;99197.88;343013;28;998;-76
2023/03/05 00:05:05;;;;;;;400.60;174.93;;;;;;;5.78;100.00;99204.81;343585;28;1212;-77
2023/03/05 00:05:16;;;;;;;400.08;167.18;;;;;;;5.77;100.00;99203.09;343447;28;1176;-77
2023/03/05 00:05:26;;;;;;;402.77;168.33;;;;;;;5.80;100.00;99203.03;345704;28;944;-77
2023/03/05 00:05:36;;;;;;;401.40;166.18;;;;;;;5.79;100.00;99203.91;343605;28;1565;-77
2023/03/05 00:05:47;;;;;;;403.37;172.60;;;;;;;5.75;100.00;99197.09;343582;28;841;-77
2023/03/05 00:05:57;;;;;;;400.85;168.93;;;;;;;5.77;100.00;99200.50;343230;28;1772;-77
2023/03/05 00:06:08;;;;;;;402.60;176.30;;;;;;;5.77;100.00;99197.91;340060;28;1767;-77
2023/03/05 00:06:19;;;;;;;399.67;173.83;;;;;;;5.78;100.00;99202.22;339508;29;790;-77
2023/03/05 00:06:30;;;;;;;398.83;173.15;;;;;;;5.74;100.00;99200.59;338234;29;1274;-77
2023/03/05 00:06:40;;;;;;;399.60;170.52;;;;;;;5.77;100.00;99200.50;338303;29;2135;-77
2023/03/05 00:06:50;;;;;;;406.23;174.50;;;;;;;5.71;100.00;99190.31;339379;29;1654;-77
2023/03/05 00:07:01;;;;;;;408.90;171.63;;;;;;;5.76;100.00;99198.81;337024;29;990;-77
2023/03/05 00:07:13;;;;;;;407.40;165.83;;;;;;;5.76;100.00;99199.66;342079;28;909;-77
2023/03/05 00:07:23;;;;;;;398.85;160.23;;;;;;;5.73;100.00;99198.91;340482;28;1523;-78
2023/03/05 00:07:33;;;;;;;397.80;165.68;;;;;;;5.76;100.00;99198.81;336903;29;1429;-77
2023/03/05 00:07:44;;;;;;;398.47;171.23;;;;;;;5.75;100.00;99199.72;335830;29;1207;-77
2023/03/05 00:07:54;;;;;;;403.33;175.57;;;;;;;5.76;100.00;99204.00;336341;29;2235;-77
2023/03/05 00:08:05;;;;;;;402.90;168.70;;;;;;;5.75;100.00;99204.91;335090;29;2270;-77
2023/03/05 00:08:15;;;;;;;404.08;170.32;;;;;;;5.75;100.00;99197.09;333347;29;1253;-77
2023/03/05 00:08:26;;;;;;;403.23;171.27;;;;;;;5.75;100.00;99204.91;337356;29;2440;-77
2023/03/05 00:08:37;;;;;;;402.60;174.93;;;;;;;5.72;100.00;99192.00;333070;29;2708;-77
2023/03/05 00:08:48;;;;;;;403.27;173.90;;;;;;;5.74;100.00;99196.25;330503;29;1190;-77
2023/03/05 00:08:58;;;;;;;402.08;170.80;;;;;;;5.73;100.00;99191.09;328905;29;2849;-77
2023/03/05 00:09:09;;;;;;;405.55;169.90;;;;;;;5.73;100.00;99198.91;332604;29;1767;-77
2023/03/05 00:09:19;;;;;;;404.97;173.37;;;;;;;5.72;100.00;99186.81;329170;29;1598;-77
2023/03/05 00:09:30;;;;;;;404.55;174.57;;;;;;;5.79;100.00;99203.91;330688;29;819;-77
2023/03/05 00:09:40;;;;;;;402.33;175.33;;;;;;;5.75;100.00;99192.75;330387;29;2154;-77
2023/03/05 00:09:50;;;;;;;402.63;173.15;;;;;;;5.76;100.00;99188.44;329138;29;2277;-77
2023/03/05 00:10:01;;;;;;;399.03;168.53;;;;;;;5.80;100.00;99200.44;330490;29;860;-77
2023/03/05 00:10:12;;;;;;;400.20;170.68;;;;;;;5.76;100.00;99201.41;326514;29;2605;-77
2023/03/05 00:10:22;;;;;;;401.60;170.43;;;;;;;5.73;100.00;99193.69;325970;30;2956;-77
2023/03/05 00:10:33;;;;;;;402.43;171.90;;;;;;;5.74;100.00;99192.81;322165;30;1292;-77
2023/03/05 00:10:43;;;;;;;402.13;168.75;;;;;;;5.69;100.00;99188.59;317001;30;3107;-77
2023/03/05 00:10:57;;;;;;;403.30;166.80;;;;;;;5.73;100.00;99198.91;318517;30;3369;-77
2023/03/05 00:11:09;;;;;;;405.23;170.32;;;;;;;5.70;100.00;99189.44;317205;30;3266;-77
2023/03/05 00:11:19;;;;;;;406.33;175.07;;;;;;;5.72;100.00;99189.41;320575;30;2443;-78
2023/03/05 00:11:30;;;;;;;407.50;176.18;;;;;;;5.71;100.00;99191.16;318542;30;1300;-78
2023/03/05 00:11:40;;;;;;;405.57;177.07;;;;;;;5.74;100.00;99195.41;317083;30;1770;-78
2023/03/05 00:11:51;;;;;;;401.08;170.48;;;;;;;5.69;100.00;99193.78;315201;31;2685;-77
2023/03/05 00:12:01;;;;;;;397.93;167.13;;;;;;;5.75;100.00;99197.09;316081;31;1190;-77
2023/03/05 00:12:12;;;;;;;399.40;173.75;;;;;;;5.71;100.00;99198.94;314764;31;3100;-77
2023/03/05 00:12:22;;;;;;;403.87;178.47;;;;;;;5.75;100.00;99197.09;312599;31;4121;-77
2023/03/05 00:12:32;;;;;;;404.55;181.25;;;;;;;5.73;100.00;99202.34;309627;31;1336;-77
2023/03/05 00:12:43;;;;;;;404.20;176.53;;;;;;;5.72;100.00;99200.63;315076;31;3775;-77
2023/03/05 00:12:53;;;;;;;404.83;178.93;;;;;;;5.69;100.00;99191.19;314275;31;4029;-77
2023/03/05 00:13:04;;;;;;;404.13;175.37;;;;;;;5.65;100.00;99192.16;310415;31;4237;-77
2023/03/05 00:13:15;;;;;;;402.28;175.06;;;;;;;5.71;100.00;99198.09;303185;32;1557;-77
2023/03/05 00:13:25;;;;;;;399.23;171.03;;;;;;;5.72;100.00;99198.03;305706;32;4286;-77
2023/03/05 00:13:36;;;;;;;401.20;176.77;;;;;;;5.74;100.00;99200.59;306696;31;3405;-77
2023/03/05 00:13:46;;;;;;;401.35;176.23;;;;;;;5.74;100.00;99190.22;308558;32;1242;-77
2023/03/05 00:13:57;;;;;;;402.80;179.20;;;;;;;5.73;100.00;99193.69;308543;31;3234;-77
2023/03/05 00:14:07;;;;;;;402.98;180.35;;;;;;;5.71;100.00;99195.50;308519;31;3974;-77
2023/03/05 00:14:17;;;;;;;400.52;176.43;;;;;;;5.72;100.00;99192.00;309658;31;812;-77
2023/03/05 00:14:28;;;;;;;403.87;178.27;;;;;;;5.72;100.00;99192.00;304331;32;4581;-77
2023/03/05 00:14:39;;;;;;;401.67;174.70;;;;;;;5.74;100.00;99200.59;303565;32;6094;-77
2023/03/05 00:14:49;;;;;;;403.73;180.43;;;;;;;5.72;100.00;99199.78;300217;32;5843;-77
2023/03/05 00:14:59;;;;;;;396.77;171.82;;;;;;;5.74;100.00;99198.84;302269;32;885;-77
2023/03/05 00:15:10;;;;;;;392.63;165.53;;;;;;;5.73;100.00;99201.50;300274;32;5176;-77
2023/03/05 00:15:20;;;;;;;391.95;162.88;;;;;;;5.72;100.00;99197.19;297680;32;5337;-77
2023/03/05 00:15:31;;;;;;;397.13;163.60;;;;;;;5.74;100.00;99195.41;295473;33;1006;-77
2023/03/05 00:15:41;;;;;;;401.45;163.88;;;;;;;5.73;100.00;99188.50;294468;33;6030;-77
2023/03/05 00:15:52;;;;;;;403.90;162.98;;;;;;;5.74;100.00;99193.66;294023;33;4972;-77
2023/03/05 00:16:07;;;;;;;404.60;172.13;;;;;;;5.74;100.00;99187.63;293058;33;1494;-77
2023/03/05 00:16:18;;;;;;;404.67;173.25;;;;;;;5.78;100.00;99194.44;291232;34;869;-77
2023/03/05 00:16:29;;;;;;;400.23;165.50;;;;;;;5.77;100.00;99196.16;290997;34;1337;-77
2023/03/05 00:16:39;;;;;;;399.87;169.20;;;;;;;5.75;100.00;99194.50;288562;34;7713;-77
2023/03/05 00:16:50;;;;;;;402.65;172.73;;;;;;;5.78;100.00;99197.03;285120;34;7889;-77
2023/03/05 00:17:00;;;;;;;402.53;174.37;;;;;;;5.75;100.00;99191.91;286444;34;1217;-77
2023/03/05 00:17:10;;;;;;;398.75;164.57;;;;;;;5.77;100.00;99201.38;283687;34;8328;-77
2023/03/05 00:17:21;;;;;;;392.77;160.13;;;;;;;5.75;100.00;99191.91;282161;34;9946;-76
2023/03/05 00:17:31;;;;;;;394.45;164.35;;;;;;;5.78;100.00;99202.22;282734;35;1222;-77
2023/03/05 00:17:42;;;;;;;398.37;166.57;;;;;;;5.77;100.00;99195.31;282680;34;7344;-77
2023/03/05 00:19:36;;;;;;;394.65;164.07;;;;;;;5.77;100.00;99192.72;2486756;27;20262;-76
2023/03/05 00:19:46;;;;;;;399.80;170.73;;;;;;;5.78;100.00;99197.03;350149;28;1370;-76
2023/03/05 00:19:57;;;;;;;399.90;167.77;;;;;;;5.78;100.00;99197.03;348825;28;1298;-77
2023/03/05 00:20:08;;;;;;;398.38;169.23;;;;;;;5.78;100.00;99191.84;348981;28;1434;-77
2023/03/05 00:20:18;;;;;;;397.88;176.85;;;;;;;5.77;100.00;99195.31;348953;28;964;-77
2023/03/05 00:20:29;;;;;;;398.52;178.57;;;;;;;5.78;100.00;99204.81;348292;28;1306;-77
2023/03/05 00:20:39;;;;;;;400.63;180.37;;;;;;;5.72;100.00;99186.81;348032;28;1197;-77
2023/03/05 00:20:50;;;;;;;400.98;173.23;;;;;;;5.77;100.00;99195.31;346299;28;1332;-77
2023/03/05 00:21:00;;;;;;;400.30;173.37;;;;;;;5.73;100.00;99194.56;344684;28;1512;-77
2023/03/05 00:21:21;;;;;;;399.95;170.43;;;;;;;5.74;100.00;99193.66;346284;28;1318;-77
2023/03/05 00:21:34;;;;;;;401.58;169.18;;;;;;;5.75;100.00;99191.91;346187;28;907;-77
2023/03/05 00:21:44;;;;;;;402.05;170.57;;;;;;;5.73;100.00;99197.16;344879;28;1003;-77
2023/03/05 00:21:55;;;;;;;401.20;170.53;;;;;;;5.75;100.00;99194.50;346030;28;1199;-77
2023/03/05 00:22:05;;;;;;;403.90;175.18;;;;;;;5.74;100.00;99188.47;347523;28;1170;-77
2023/03/05 00:22:15;;;;;;;407.90;175.90;;;;;;;5.76;100.00;99198.81;346312;28;922;-77
2023/03/05 00:22:26;;;;;;;410.40;173.33;;;;;;;5.76;100.00;99193.63;339476;29;1430;-76
2023/03/05 00:22:36;;;;;;;405.83;168.48;;;;;;;5.73;100.00;99196.28;342244;28;821;-76
2023/03/05 00:22:47;;;;;;;404.20;168.10;;;;;;;5.74;100.00;99200.59;344850;28;1375;-76
2023/03/05 00:22:57;;;;;;;403.48;172.95;;;;;;;5.73;100.00;99194.56;345494;28;1287;-77
2023/03/05 00:23:07;;;;;;;404.57;181.67;;;;;;;5.76;100.00;99197.06;346104;28;1176;-77
2023/03/05 00:23:18;;;;;;;399.92;179.30;;;;;;;5.74;100.00;99195.41;346659;28;874;-76
2023/03/05 00:23:29;;;;;;;398.13;169.23;;;;;;;5.73;100.00;99193.69;345561;28;1311;-77
2023/03/05 00:23:40;;;;;;;399.83;167.57;;;;;;;5.74;100.00;99193.66;342187;28;1403;-77
2023/03/05 00:23:51;;;;;;;405.15;172.73;;;;;;;5.73;100.00;99191.09;344826;28;1551;-77
2023/03/05 00:24:02;;;;;;;409.43;183.97;;;;;;;5.73;100.00;99193.69;343448;28;1202;-77
2023/03/05 00:24:16;;;;;;;407.42;179.50;;;;;;;5.74;100.00;99195.41;345116;28;920;-77
2023/03/05 00:24:26;;;;;;;399.85;169.63;;;;;;;5.74;100.00;99193.66;346181;28;1305;-77
2023/03/05 00:24:36;;;;;;;398.45;166.45;;;;;;;5.74;100.00;99195.41;346057;28;1308;-77
2023/03/05 00:24:50;;;;;;;398.87;167.20;;;;;;;5.73;100.00;99188.50;343533;28;820;-77
2023/03/05 00:25:00;;;;;;;401.10;166.05;;;;;;;5.73;100.00;99193.69;344274;28;936;-77
2023/03/05 00:25:11;;;;;;;405.23;166.93;;;;;;;5.71;100.00;99188.56;347282;28;1225;-77
2023/03/05 00:25:21;;;;;;;402.15;167.02;;;;;;;5.72;100.00;99194.59;344138;28;1331;-77
2023/03/05 00:25:34;;;;;;;401.20;171.97;;;;;;;5.72;100.00;99189.41;344254;28;1285;-77
2023/03/05 00:25:45;;;;;;;395.55;168.98;;;;;;;5.72;100.00;99187.66;343347;28;1588;-77
2023/03/05 00:25:55;;;;;;;394.52;162.52;;;;;;;5.73;100.00;99189.38;342370;28;1407;-77
2023/03/05 00:26:06;;;;;;;393.80;159.48;;;;;;;5.74;100.00;99192.81;342156;28;1348;-76
2023/03/05 00:26:18;;;;;;;401.13;167.20;;;;;;;5.74;100.00;99190.22;346336;28;1107;-78
2023/03/05 00:26:28;;;;;;;403.88;171.38;;;;;;;5.73;100.00;99188.50;345982;28;1498;-78
2023/03/05 00:26:39;;;;;;;405.02;169.80;;;;;;;5.74;100.00;99196.25;343468;28;1357;-78
2023/03/05 00:26:49;;;;;;;401.93;167.17;;;;;;;5.70;100.00;99181.66;339499;28;1224;-77
2023/03/05 00:27:00;;;;;;;402.55;165.98;;;;;;;5.74;100.00;99198.84;342688;28;1172;-77
2023/03/05 00:27:10;;;;;;;400.15;163.27;;;;;;;5.71;100.00;99185.09;344699;28;1298;-77
2023/03/05 00:27:20;;;;;;;400.43;164.63;;;;;;;5.73;100.00;99194.56;343523;28;1020;-77
2023/03/05 00:27:31;;;;;;;402.50;167.23;;;;;;;5.71;100.00;99190.31;344057;28;1311;-77
2023/03/05 00:27:41;;;;;;;401.57;173.03;;;;;;;5.70;100.00;99184.25;342100;28;1531;-77
2023/03/05 00:27:51;;;;;;;399.17;169.00;;;;;;;5.72;100.00;99186.81;338293;29;1149;-77
2023/03/05 00:28:03;;;;;;;395.83;164.68;;;;;;;5.68;100.00;99186.91;338938;29;1220;-76
2023/03/05 00:28:13;;;;;;;396.73;165.43;;;;;;;5.72;100.00;99192.00;340248;28;1588;-75
2023/03/05 00:28:23;;;;;;;399.43;166.33;;;;;;;5.73;100.00;99194.56;339633;29;1057;-77
2023/03/05 00:28:34;;;;;;;402.33;168.80;;;;;;;5.72;100.00;99195.44;338684;29;1354;-77
2023/03/05 00:28:48;;;;;;;402.73;167.90;;;;;;;5.72;100.00;99192.84;336905;29;1340;-77
2023/03/05 00:28:59;;;;;;;398.77;169.02;;;;;;;5.71;100.00;99191.16;336084;29;948;-77
2023/03/05 00:29:10;;;;;;;397.80;169.37;;;;;;;5.71;100.00;99182.50;338147;29;1285;-77
2023/03/05 00:29:21;;;;;;;396.40;168.98;;;;;;;5.72;100.00;99187.66;336786;29;1296;-77
2023/03/05 00:29:31;;;;;;;398.98;174.30;;;;;;;5.72;100.00;99182.47;331131;29;1467;-77
2023/03/05 00:29:41;;;;;;;405.17;173.30;;;;;;;5.73;100.00;99193.69;330894;29;1747;-77
2023/03/05 00:29:52;;;;;;;403.95;171.57;;;;;;;5.62;100.00;99173.25;331790;29;1304;-76
2023/03/05 00:30:02;;;;;;;404.53;165.80;;;;;;;5.69;100.00;99186.00;334250;29;1835;-76
2023/03/05 00:30:13;;;;;;;402.50;169.68;;;;;;;5.72;100.00;99192.00;333041;29;2103;-76
2023/03/05 00:30:23;;;;;;;404.87;167.37;;;;;;;5.68;100.00;99180.84;331948;29;947;-76
2023/03/05 00:30:34;;;;;;;407.92;171.25;;;;;;;5.68;100.00;99176.50;338873;29;1893;-76
2023/03/05 00:30:45;;;;;;;407.07;169.23;;;;;;;5.67;100.00;99180.00;333508;29;1640;-77
2023/03/05 00:30:58;;;;;;;404.08;171.25;;;;;;;5.67;100.00;99182.59;335367;29;1494;-77
2023/03/05 00:31:09;;;;;;;396.73;171.80;;;;;;;5.69;100.00;99179.94;334855;29;1295;-77
2023/03/05 00:31:21;;;;;;;393.93;164.90;;;;;;;5.71;100.00;99185.09;334345;29;1295;-77
2023/03/05 00:31:32;;;;;;;396.08;170.85;;;;;;;5.71;100.00;99185.09;331810;29;1972;-76
2023/03/05 00:31:43;;;;;;;397.48;165.77;;;;;;;5.72;100.00;99186.81;332712;29;2842;-76
2023/03/05 00:31:54;;;;;;;399.20;167.77;;;;;;;5.66;100.00;99175.69;330082;29;1270;-76
2023/03/05 00:32:04;;;;;;;401.30;168.02;;;;;;;5.70;100.00;99189.44;333762;29;2372;-76
2023/03/05 00:32:15;;;;;;;405.17;174.20;;;;;;;5.65;100.00;99170.56;333188;29;2423;-76
2023/03/05 00:32:25;;;;;;;406.23;172.55;;;;;;;5.65;100.00;99181.78;330153;29;2737;-76
2023/03/05 00:32:35;;;;;;;405.20;175.70;;;;;;;5.69;100.00;99188.59;328046;30;1307;-77
2023/03/05 00:32:46;;;;;;;403.65;177.98;;;;;;;5.67;100.00;99185.19;328623;29;2421;-77
2023/03/05 00:32:56;;;;;;;403.27;179.73;;;;;;;5.67;100.00;99185.19;329415;29;1665;-77
2023/03/05 00:33:07;;;;;;;404.92;180.88;;;;;;;5.62;100.00;99175.84;329322;30;874;-77
2023/03/05 00:33:17;;;;;;;403.80;172.93;;;;;;;5.64;100.00;99184.41;328788;29;1381;-77
2023/03/05 00:33:27;;;;;;;400.52;169.65;;;;;;;5.61;100.00;99174.16;328019;29;2820;-77
2023/03/05 00:33:38;;;;;;;399.03;166.30;;;;;;;5.60;100.00;99173.31;326328;30;1403;-77
2023/03/05 00:33:52;;;;;;;399.15;169.57;;;;;;;5.61;100.00;99175.00;324696;30;2565;-77
2023/03/05 00:34:05;;;;;;;400.35;169.50;;;;;;;5.62;100.00;99179.31;322314;30;2793;-77
2023/03/05 00:34:17;;;;;;;405.05;173.50;;;;;;;5.60;100.00;99173.31;324165;30;3524;-77
2023/03/05 00:34:28;;;;;;;411.30;174.75;;;;;;;5.57;100.00;99175.97;325150;30;3502;-77
2023/03/05 00:34:38;;;;;;;410.90;174.15;;;;;;;5.59;100.00;99176.78;323219;30;1303;-77
2023/03/05 00:34:49;;;;;;;409.30;178.87;;;;;;;5.55;100.00;99175.16;321445;30;3366;-76
2023/03/05 00:34:59;;;;;;;406.30;181.17;;;;;;;5.59;100.00;99174.19;323178;30;3055;-76
2023/03/05 00:35:10;;;;;;;404.43;182.47;;;;;;;5.56;100.00;99182.06;322956;30;2162;-76
2023/03/05 00:35:20;;;;;;;404.60;175.67;;;;;;;5.55;100.00;99163.94;316327;31;1091;-76
2023/03/05 00:35:30;;;;;;;404.67;173.77;;;;;;;5.58;100.00;99180.28;318608;30;2465;-76
2023/03/05 00:35:42;;;;;;;407.10;176.77;;;;;;;5.56;100.00;99176.03;317703;30;3110;-76
2023/03/05 00:35:52;;;;;;;403.75;174.10;;;;;;;5.53;100.00;99166.56;313973;31;1517;-76
2023/03/05 00:36:05;;;;;;;401.13;172.50;;;;;;;5.57;100.00;99173.38;311311;31;3513;-76
2023/03/05 00:36:15;;;;;;;400.05;172.00;;;;;;;5.58;100.00;99179.44;311694;31;4382;-76
2023/03/05 00:36:26;;;;;;;402.83;178.05;;;;;;;5.59;100.00;99178.53;310208;31;4463;-76
2023/03/05 00:36:43;;;;;;;401.98;176.82;;;;;;;5.58;100.00;99179.44;309590;31;1238;-76
2023/03/05 00:36:53;;;;;;;397.95;172.13;;;;;;;5.56;100.00;99174.28;305337;32;1033;-77
2023/03/05 00:37:04;;;;;;;397.90;169.50;;;;;;;5.61;100.00;99175.00;305491;32;4540;-76
2023/03/05 00:37:15;;;;;;;400.90;171.20;;;;;;;5.60;100.00;99177.66;301018;32;4252;-76
2023/03/05 00:37:25;;;;;;;406.17;172.80;;;;;;;5.58;100.00;99171.66;299815;32;3187;-77
2023/03/05 00:37:36;;;;;;;408.63;173.55;;;;;;;5.58;100.00;99176.84;302224;32;916;-77
2023/03/05 00:37:46;;;;;;;407.03;174.20;;;;;;;5.58;100.00;99175.09;301840;32;3427;-77
2023/03/05 00:37:57;;;;;;;401.70;171.23;;;;;;;5.54;100.00;99167.44;301769;32;4380;-76
2023/03/05 00:38:07;;;;;;;397.53;174.53;;;;;;;5.54;100.00;99177.81;303238;32;855;-76
2023/03/05 00:38:18;;;;;;;396.85;175.98;;;;;;;5.42;100.00;99153.03;299579;32;6169;-77
2023/03/05 00:38:28;;;;;;;397.97;173.17;;;;;;;5.48;100.00;99167.59;296940;32;6573;-76
2023/03/05 00:38:38;;;;;;;401.55;171.48;;;;;;;5.52;100.00;99179.59;295986;33;1339;-76
2023/03/05 00:38:49;;;;;;;403.50;168.03;;;;;;;5.50;100.00;99173.59;295013;33;6773;-76
2023/03/05 00:38:59;;;;;;;405.83;171.80;;;;;;;5.47;100.00;99174.53;294155;33;6743;-76
2023/03/05 00:39:10;;;;;;;409.83;174.40;;;;;;;5.47;100.00;99177.13;294374;33;6024;-76
2023/03/05 00:39:21;;;;;;;408.25;175.60;;;;;;;5.50;100.00;99171.84;293234;33;872;-76
2023/03/05 00:39:31;;;;;;;406.05;175.07;;;;;;;5.47;100.00;99165.91;290751;33;5889;-76
2023/03/05 00:39:41;;;;;;;398.93;171.70;;;;;;;5.47;100.00;99171.94;288913;33;4643;-76
2023/03/05 00:39:52;;;;;;;402.45;175.05;;;;;;;5.48;100.00;99178.81;293071;33;1270;-76
2023/03/05 00:40:03;;;;;;;402.87;174.20;;;;;;;5.47;100.00;99171.94;289756;33;5445;-76
2023/03/05 00:40:14;;;;;;;398.13;169.25;;;;;;;5.49;100.00;99169.31;290496;33;6549;-76
2023/03/05 00:40:24;;;;;;;396.90;166.73;;;;;;;5.49;100.00;99170.16;290129;34;1333;-76
2023/03/05 00:40:38;;;;;;;401.10;171.95;;;;;;;5.43;100.00;99159.94;285173;34;9366;-76
2023/03/05 00:40:49;;;;;;;401.73;174.45;;;;;;;5.47;100.00;99169.34;284207;34;8888;-77
2023/03/05 00:40:59;;;;;;;398.17;166.55;;;;;;;5.48;100.00;99173.63;281748;34;9452;-77
2023/03/05 00:41:10;;;;;;;399.03;166.23;;;;;;;5.46;100.00;99165.03;283388;34;1957;-77
2023/03/05 00:41:20;;;;;;;403.13;170.07;;;;;;;5.43;100.00;99159.09;280916;35;1371;-77
2023/03/05 00:41:30;;;;;;;408.27;175.23;;;;;;;5.49;100.00;99170.16;276505;35;8530;-76
2023/03/05 00:41:41;;;;;;;410.57;177.13;;;;;;;5.48;100.00;99172.78;273395;35;7070;-76
2023/03/05 00:41:51;;;;;;;411.20;174.38;;;;;;;5.49;100.00;99174.50;275680;35;855;-76
2023/03/05 00:44:18;;;;;;;393.43;166.28;;;;;;;5.43;100.00;99164.28;2492447;27;20489;-77
2023/03/05 00:44:28;;;;;;;399.42;169.57;;;;;;;5.42;100.00;99168.63;353453;28;839;-77
2023/03/05 00:44:39;;;;;;;397.23;165.63;;;;;;;5.43;100.00;99167.72;350378;28;905;-77
2023/03/05 00:44:49;;;;;;;396.17;164.47;;;;;;;5.47;100.00;99166.75;349720;28;5774;-77
2023/03/05 00:44:59;;;;;;;396.17;165.05;;;;;;;5.47;100.00;99166.75;348860;28;1204;-77
2023/03/05 00:45:10;;;;;;;397.20;164.87;;;;;;;5.46;100.00;99169.38;348784;28;1180;-77
2023/03/05 00:45:21;;;;;;;399.52;166.85;;;;;;;5.47;100.00;99164.16;348968;28;1017;-77
2023/03/05 00:45:31;;;;;;;398.57;161.53;;;;;;;5.44;100.00;99164.22;347675;28;824;-77
2023/03/05 00:45:42;;;;;;;400.98;169.30;;;;;;;5.45;100.00;99163.34;348326;28;1208;-77
2023/03/05 00:45:52;;;;;;;399.63;167.17;;;;;;;5.44;100.00;99161.63;346171;28;1078;-77
2023/03/05 00:46:03;;;;;;;402.63;173.48;;;;;;;5.46;100.00;99159.84;347375;28;1219;-77
2023/03/05 00:46:13;;;;;;;401.73;168.47;;;;;;;5.45;100.00;99162.50;351059;28;1359;-77
2023/03/05 00:46:26;;;;;;;404.00;172.07;;;;;;;5.47;100.00;99171.94;348794;28;1408;-77
2023/03/05 00:46:36;;;;;;;400.58;172.50;;;;;;;5.47;100.00;99164.16;348977;28;1480;-77
2023/03/05 00:46:47;;;;;;;402.63;173.70;;;;;;;5.46;100.00;99165.03;349186;28;1211;-77
2023/03/05 00:46:57;;;;;;;402.08;170.65;;;;;;;5.46;100.00;99165.03;347784;28;942;-77
2023/03/05 00:47:07;;;;;;;403.53;165.63;;;;;;;5.44;100.00;99166.81;349133;28;1298;-78
2023/03/05 00:47:18;;;;;;;400.23;161.13;;;;;;;5.44;100.00;99163.38;348791;28;1249;-77
2023/03/05 00:47:28;;;;;;;401.25;158.05;;;;;;;5.47;100.00;99160.69;344763;28;1217;-77
2023/03/05 00:47:39;;;;;;;398.08;159.88;;;;;;;5.45;100.00;99165.94;346241;28;831;-77
2023/03/05 00:47:49;;;;;;;398.43;158.03;;;;;;;5.44;100.00;99153.84;346139;28;1412;-77
2023/03/05 00:48:00;;;;;;;399.67;162.07;;;;;;;5.46;100.00;99161.59;346855;28;888;-77
2023/03/05 00:48:10;;;;;;;399.10;160.77;;;;;;;5.47;100.00;99165.91;346529;28;1127;-77
2023/03/05 00:48:24;;;;;;;401.77;169.80;;;;;;;5.48;100.00;99170.19;348873;28;1291;-77
2023/03/05 00:48:34;;;;;;;399.65;168.90;;;;;;;5.47;100.00;99160.69;347600;28;859;-77
2023/03/05 00:48:45;;;;;;;398.13;162.27;;;;;;;5.45;100.00;99160.75;346104;28;1077;-77
2023/03/05 00:48:55;;;;;;;396.93;161.77;;;;;;;5.46;100.00;99165.03;344996;28;1347;-77
2023/03/05 00:49:06;;;;;;;396.98;161.00;;;;;;;5.45;100.00;99159.91;346286;28;821;-77
2023/03/05 00:49:16;;;;;;;397.43;167.63;;;;;;;5.41;100.00;99160.88;349013;28;1199;-77
2023/03/05 00:49:27;;;;;;;397.67;166.48;;;;;;;5.45;100.00;99165.94;348499;28;1205;-77
2023/03/05 00:49:38;;;;;;;396.83;167.13;;;;;;;5.45;100.00;99162.50;343404;28;1354;-77
2023/03/05 00:49:49;;;;;;;395.27;156.40;;;;;;;5.41;100.00;99160.88;345086;28;951;-77
2023/03/05 00:49:59;;;;;;;395.40;154.60;;;;;;;5.42;100.00;99166.00;347318;28;1240;-77
2023/03/05 00:50:10;;;;;;;398.30;158.83;;;;;;;5.42;100.00;99163.41;345677;28;1274;-77
2023/03/05 00:50:20;;;;;;;399.55;164.45;;;;;;;5.43;100.00;99159.94;344888;28;872;-77
2023/03/05 00:50:31;;;;;;;400.30;168.23;;;;;;;5.44;100.00;99156.44;344395;28;1303;-77
2023/03/05 00:50:41;;;;;;;400.07;167.40;;;;;;;5.45;100.00;99157.28;346527;28;1427;-77
2023/03/05 00:50:51;;;;;;;395.97;161.60;;;;;;;5.45;100.00;99158.16;344793;28;1181;-77
2023/03/05 00:51:02;;;;;;;396.45;161.68;;;;;;;5.48;100.00;99157.22;340919;29;861;-77
2023/03/05 00:51:12;;;;;;;398.35;166.38;;;;;;;5.46;100.00;99159.84;340858;29;871;-77
2023/03/05 00:51:23;;;;;;;402.03;171.20;;;;;;;5.44;100.00;99159.03;339447;29;932;-77
2023/03/05 00:51:34;;;;;;;406.05;171.73;;;;;;;5.44;100.00;99155.59;340837;29;1223;-77
2023/03/05 00:51:44;;;;;;;408.90;171.07;;;;;;;5.45;100.00;99157.28;340353;29;1339;-77
2023/03/05 00:51:54;;;;;;;403.25;168.23;;;;;;;5.44;100.00;99164.22;343438;28;1157;-77
2023/03/05 00:52:05;;;;;;;399.30;170.70;;;;;;;5.45;100.00;99158.16;342174;28;1524;-77
2023/03/05 00:52:15;;;;;;;399.48;173.90;;;;;;;5.45;100.00;99159.91;337084;28;1360;-77
2023/03/05 00:52:26;;;;;;;405.97;178.53;;;;;;;5.43;100.00;99159.94;339719;28;1398;-77
2023/03/05 00:52:36;;;;;;;406.23;176.55;;;;;;;5.44;100.00;99150.41;340791;29;1226;-77
2023/03/05 00:52:46;;;;;;;404.13;173.57;;;;;;;5.47;100.00;99160.69;339252;28;1320;-77
2023/03/05 00:52:57;;;;;;;400.27;167.40;;;;;;;5.43;100.00;99153.91;337216;29;1303;-77
2023/03/05 00:53:07;;;;;;;397.93;165.10;;;;;;;5.47;100.00;99161.56;335481;29;1911;-77
2023/03/05 00:53:18;;;;;;;398.85;166.75;;;;;;;5.47;100.00;99161.56;338328;29;802;-77
2023/03/05 00:53:28;;;;;;;399.80;166.00;;;;;;;5.44;100.00;99151.25;335544;29;1097;-77
2023/03/05 00:53:38;;;;;;;400.17;163.70;;;;;;;5.45;100.00;99158.16;336832;29;1197;-77
2023/03/05 00:53:49;;;;;;;396.33;162.07;;;;;;;5.38;100.00;99146.22;336826;29;1423;-77